Time;durP1;ratioP1;P1;durP2;ratioP2;P2;SDS_P1;SDS_P2;PMS_P1;PMS_P2;Temp;Humidity;BMP_temperature;BMP_pressure;BME280_temperature;BME280_humidity;BME280_pressure;Samples;Min_cycle;Max_cycle;Signal;HPM_P1;HPM_P2
2022/04/23 00:00:59;;;;;;;49.67;26.23;;;10.70;42.20;;;;;;5009480;28;20491;-58
2022/04/23 00:03:26;;;;;;;49.70;25.20;;;10.70;42.20;;;;;;5006849;28;20463;-57
2022/04/23 00:05:53;;;;;;;53.03;25.17;;;10.70;42.20;;;;;;5007058;28;20488;-59
2022/04/23 00:08:20;;;;;;;55.00;25.47;;;10.70;42.30;;;;;;5009189;28;20483;-59
2022/04/23 00:10:48;;;;;;;50.93;24.40;;;10.70;42.50;;;;;;5010986;28;20467;-58
2022/04/23 00:13:15;;;;;;;52.07;26.40;;;10.70;42.30;;;;;;5006527;28;21002;-56
2022/04/23 00:15:43;;;;;;;52.53;26.40;;;10.70;42.20;;;;;;5005893;28;20479;-58
2022/04/23 00:18:10;;;;;;;50.70;25.67;;;10.70;42.30;;;;;;5004582;28;20509;-58
2022/04/23 00:20:38;;;;;;;48.70;23.33;;;10.70;42.30;;;;;;5013570;28;20964;-58
2022/04/23 00:23:05;;;;;;;50.23;24.50;;;10.70;42.00;;;;;;5006664;28;22421;-59
2022/04/23 00:25:32;;;;;;;53.30;25.30;;;10.80;42.00;;;;;;5008669;28;20464;-59
2022/04/23 00:28:00;;;;;;;51.20;26.17;;;10.80;41.70;;;;;;5010829;28;20487;-59
2022/04/23 00:30:27;;;;;;;52.23;26.60;;;10.80;42.30;;;;;;5009159;28;20471;-59
2022/04/23 00:32:58;;;;;;;58.43;26.60;;;10.80;41.90;;;;;;4999537;28;20464;-59
2022/04/23 00:35:25;;;;;;;53.63;26.50;;;10.80;41.40;;;;;;5009749;28;20622;-58
2022/04/23 00:37:52;;;;;;;53.37;25.53;;;10.80;41.60;;;;;;5001573;28;20484;-58
2022/04/23 00:40:20;;;;;;;53.60;25.67;;;10.80;42.10;;;;;;5005263;28;20507;-58
2022/04/23 00:42:51;;;;;;;49.63;23.63;;;10.80;41.70;;;;;;5001625;28;21037;-57
2022/04/23 00:45:19;;;;;;;53.20;25.97;;;10.90;41.50;;;;;;5009358;28;20491;-58
2022/04/23 00:47:46;;;;;;;53.57;26.17;;;10.80;41.90;;;;;;5007829;28;20490;-58
2022/04/23 00:50:13;;;;;;;52.60;26.00;;;10.80;41.60;;;;;;5005941;28;20468;-58
2022/04/23 00:52:40;;;;;;;50.70;24.20;;;10.80;41.40;;;;;;5004855;28;20472;-58
2022/04/23 00:55:09;;;;;;;51.27;24.20;;;10.90;41.10;;;;;;5008775;28;20503;-59
2022/04/23 00:57:37;;;;;;;51.87;25.37;;;10.90;41.00;;;;;;5007716;28;20503;-58
2022/04/23 01:00:08;;;;;;;52.13;26.00;;;10.90;41.10;;;;;;5003932;28;20492;-60
2022/04/23 01:02:37;;;;;;;52.10;24.60;;;10.90;40.90;;;;;;5005069;28;20600;-58
2022/04/23 01:05:04;;;;;;;51.83;25.30;;;10.90;41.00;;;;;;5006676;28;20460;-58
2022/04/23 01:07:31;;;;;;;50.00;24.37;;;10.90;40.80;;;;;;5005326;28;20482;-58
2022/04/23 01:09:57;;;;;;;51.50;26.00;;;10.90;40.70;;;;;;5004920;28;20814;-59
2022/04/23 01:12:24;;;;;;;50.20;24.50;;;11.00;40.20;;;;;;5005492;28;20505;-59
2022/04/23 01:14:57;;;;;;;51.93;24.37;;;11.00;40.10;;;;;;5004533;28;20840;-59
2022/04/23 01:17:24;;;;;;;49.30;24.30;;;11.00;40.00;;;;;;5005236;28;20553;-57
2022/04/23 01:19:52;;;;;;;53.33;25.17;;;11.10;40.30;;;;;;5004079;28;20874;-58
2022/04/23 01:22:21;;;;;;;51.80;23.93;;;11.10;39.80;;;;;;5004705;28;20464;-58
2022/04/23 01:24:50;;;;;;;50.53;23.40;;;11.10;39.90;;;;;;5007123;28;20495;-58
2022/04/23 01:27:17;;;;;;;52.07;26.20;;;11.10;39.80;;;;;;5005369;28;20570;-59
2022/04/23 01:29:43;;;;;;;53.93;26.60;;;11.00;39.60;;;;;;5008033;28;20459;-58
2022/04/23 01:32:11;;;;;;;51.63;24.33;;;11.00;39.70;;;;;;5003051;28;21047;-59
2022/04/23 01:34:38;;;;;;;54.43;27.20;;;11.00;39.90;;;;;;5008027;28;20968;-59
2022/04/23 01:37:04;;;;;;;55.40;27.67;;;11.00;40.00;;;;;;5003668;28;20464;-58
2022/04/23 01:39:33;;;;;;;53.37;25.37;;;11.00;39.80;;;;;;5005411;28;20488;-58
2022/04/23 01:41:59;;;;;;;52.80;26.10;;;10.90;39.80;;;;;;5008450;28;20460;-59
2022/04/23 01:44:26;;;;;;;53.30;26.43;;;10.90;39.70;;;;;;5007671;28;20492;-59
2022/04/23 01:46:53;;;;;;;53.40;26.27;;;10.90;40.00;;;;;;5002891;28;20463;-59
2022/04/23 01:49:20;;;;;;;54.83;25.80;;;10.90;40.10;;;;;;5002525;28;20472;-58
2022/04/23 01:51:46;;;;;;;56.17;27.23;;;10.90;40.00;;;;;;5005543;28;20887;-58
2022/04/23 01:54:13;;;;;;;52.93;25.37;;;10.80;40.00;;;;;;5007005;28;20467;-58
2022/04/23 01:56:41;;;;;;;53.43;25.97;;;10.80;40.10;;;;;;5007366;28;20477;-59
2022/04/23 01:59:08;;;;;;;53.13;26.50;;;10.80;40.30;;;;;;5005383;28;20496;-60
2022/04/23 02:01:35;;;;;;;54.90;26.63;;;10.80;40.30;;;;;;4999389;28;20479;-58
2022/04/23 02:04:02;;;;;;;52.77;25.70;;;10.80;40.50;;;;;;5000963;28;20460;-59
2022/04/23 02:06:29;;;;;;;56.00;27.87;;;10.70;40.70;;;;;;5007649;28;20452;-58
2022/04/23 02:08:56;;;;;;;55.27;27.70;;;10.70;40.40;;;;;;4999189;28;20538;-58
2022/04/23 02:11:23;;;;;;;55.70;25.90;;;10.70;40.30;;;;;;5005438;28;20460;-59
2022/04/23 02:13:51;;;;;;;54.27;27.13;;;10.70;40.30;;;;;;5003693;28;20879;-59
2022/04/23 02:16:18;;;;;;;52.97;25.00;;;10.80;40.10;;;;;;5007725;28;20471;-58
2022/04/23 02:18:45;;;;;;;53.27;26.77;;;10.80;40.10;;;;;;5001920;28;20487;-59
2022/04/23 02:21:12;;;;;;;55.50;26.70;;;10.90;39.90;;;;;;5003563;28;20475;-59
2022/04/23 02:23:38;;;;;;;53.43;25.63;;;10.90;39.80;;;;;;5009661;28;20470;-59
2022/04/23 02:26:05;;;;;;;54.17;26.37;;;10.90;39.60;;;;;;5007056;28;20475;-60
2022/04/23 02:28:32;;;;;;;51.97;24.30;;;10.80;39.70;;;;;;5014867;28;21051;-59
2022/04/23 02:31:01;;;;;;;54.10;25.87;;;10.80;39.70;;;;;;5003914;28;20471;-59
2022/04/23 02:33:27;;;;;;;53.60;24.57;;;10.80;39.60;;;;;;5001846;28;20900;-59
2022/04/23 02:35:55;;;;;;;54.50;24.80;;;10.70;39.70;;;;;;5006461;28;20468;-59
2022/04/23 02:38:22;;;;;;;54.37;24.33;;;10.60;40.00;;;;;;5013374;28;20494;-60
2022/04/23 02:40:48;;;;;;;54.13;24.97;;;10.50;40.40;;;;;;5004554;28;20479;-58
2022/04/23 02:43:15;;;;;;;56.13;25.47;;;10.40;40.60;;;;;;5002967;28;20475;-59
2022/04/23 02:45:42;;;;;;;56.70;27.27;;;10.30;40.70;;;;;;5001379;28;20554;-58
2022/04/23 02:48:10;;;;;;;55.70;25.23;;;10.30;41.10;;;;;;5010538;28;20521;-59
2022/04/23 02:50:39;;;;;;;55.80;24.73;;;10.20;41.50;;;;;;5008120;28;20506;-57
2022/04/23 02:53:07;;;;;;;54.30;24.83;;;10.20;41.60;;;;;;5006409;28;20471;-59
2022/04/23 02:55:35;;;;;;;54.90;25.30;;;10.10;41.60;;;;;;5015466;28;20475;-60
2022/04/23 02:58:02;;;;;;;54.53;25.23;;;10.20;41.70;;;;;;5016547;28;20490;-58
2022/04/23 03:00:29;;;;;;;61.90;25.20;;;10.10;42.00;;;;;;5007589;28;20714;-60
2022/04/23 03:02:56;;;;;;;55.40;26.20;;;10.10;42.00;;;;;;5004349;28;20845;-59
2022/04/23 03:05:25;;;;;;;55.33;25.73;;;10.10;42.00;;;;;;5009396;28;21009;-59
2022/04/23 03:07:53;;;;;;;54.13;25.33;;;10.10;41.80;;;;;;5009458;28;20491;-59
2022/04/23 03:10:20;;;;;;;52.23;23.70;;;10.10;41.90;;;;;;5007509;28;20470;-59
2022/04/23 03:12:47;;;;;;;57.03;26.10;;;10.10;41.80;;;;;;5010925;28;20455;-58
2022/04/23 03:15:16;;;;;;;54.40;23.80;;;10.10;42.10;;;;;;5011498;28;20460;-59
2022/04/23 03:17:43;;;;;;;54.63;24.10;;;10.10;41.70;;;;;;5014137;28;20591;-58
2022/04/23 03:20:13;;;;;;;51.63;23.30;;;10.10;41.50;;;;;;5005524;28;20491;-59
2022/04/23 03:22:42;;;;;;;56.57;23.10;;;10.10;41.70;;;;;;5013682;28;21092;-58
2022/04/23 03:25:10;;;;;;;51.37;21.87;;;10.10;41.70;;;;;;5005970;28;21773;-59
2022/04/23 03:27:37;;;;;;;47.20;18.90;;;10.10;41.40;;;;;;5008335;28;20495;-58
2022/04/23 03:30:05;;;;;;;47.47;19.07;;;10.20;41.00;;;;;;5005366;28;21608;-57
2022/04/23 03:32:33;;;;;;;48.67;19.27;;;10.10;40.80;;;;;;5009174;28;20475;-59
2022/04/23 03:35:00;;;;;;;49.27;20.70;;;10.20;40.60;;;;;;5008240;28;20566;-58
2022/04/23 03:37:27;;;;;;;48.00;19.40;;;10.10;40.40;;;;;;5005227;28;21155;-59
2022/04/23 03:39:56;;;;;;;50.13;20.60;;;10.10;40.20;;;;;;5006800;28;21001;-59
2022/04/23 03:42:22;;;;;;;50.57;20.67;;;10.10;40.10;;;;;;5005864;28;20459;-58
2022/04/23 03:44:49;;;;;;;49.90;19.80;;;10.10;39.90;;;;;;5006363;28;20460;-58
2022/04/23 03:47:16;;;;;;;47.67;18.53;;;10.00;39.80;;;;;;5006191;28;20480;-59
2022/04/23 03:49:43;;;;;;;50.90;20.37;;;10.00;39.90;;;;;;5001731;28;20483;-59
2022/04/23 03:52:10;;;;;;;51.57;20.53;;;10.00;40.20;;;;;;5005741;28;20464;-58
2022/04/23 03:54:37;;;;;;;50.97;20.47;;;10.00;40.10;;;;;;5007000;28;20459;-59
2022/04/23 03:57:06;;;;;;;48.17;19.50;;;9.90;40.30;;;;;;5004174;28;20468;-59
2022/04/23 03:59:33;;;;;;;50.80;21.30;;;9.90;40.40;;;;;;5002467;28;20487;-59
2022/04/23 04:02:04;;;;;;;49.83;21.57;;;9.80;40.40;;;;;;5000323;28;20483;-58
2022/04/23 04:04:31;;;;;;;50.87;19.90;;;9.80;40.50;;;;;;5005341;28;20563;-58
2022/04/23 04:06:59;;;;;;;50.10;20.10;;;9.70;40.80;;;;;;5004214;28;20509;-58
2022/04/23 04:09:25;;;;;;;49.53;20.00;;;9.70;40.90;;;;;;5006195;28;20539;-59
2022/04/23 04:12:06;;;;;;;49.30;18.47;;;9.60;40.90;;;;;;5007416;28;20464;-59
2022/04/23 04:14:36;;;;;;;49.53;18.13;;;9.50;41.20;;;;;;5008025;28;21043;-58
2022/04/23 04:17:04;;;;;;;46.93;17.00;;;9.40;41.80;;;;;;5007661;28;20470;-59
2022/04/23 04:19:33;;;;;;;48.73;18.53;;;9.40;41.90;;;;;;5007042;28;20614;-59
2022/04/23 04:22:02;;;;;;;48.67;17.87;;;9.20;42.30;;;;;;5006895;28;20478;-58
2022/04/23 04:24:29;;;;;;;48.33;17.90;;;9.20;42.70;;;;;;5010326;28;20464;-59
2022/04/23 04:26:57;;;;;;;51.33;19.77;;;9.20;43.00;;;;;;5005025;28;21021;-59
2022/04/23 04:29:25;;;;;;;49.13;19.67;;;9.20;43.00;;;;;;5008858;28;20471;-59
2022/04/23 04:31:53;;;;;;;52.73;18.90;;;9.20;43.00;;;;;;5003422;28;20484;-58
2022/04/23 04:34:23;;;;;;;47.30;17.90;;;9.10;43.20;;;;;;5006927;28;20463;-58
2022/04/23 04:36:51;;;;;;;47.60;18.60;;;9.10;43.30;;;;;;5003566;28;20475;-57
2022/04/23 04:39:19;;;;;;;48.53;17.67;;;9.10;43.10;;;;;;5009307;28;20487;-59
2022/04/23 04:41:47;;;;;;;45.97;18.10;;;9.10;43.30;;;;;;5004051;28;20464;-60
2022/04/23 04:44:14;;;;;;;45.13;15.83;;;9.10;43.10;;;;;;5007855;28;20464;-58
2022/04/23 04:46:41;;;;;;;47.70;17.20;;;9.10;42.80;;;;;;5013562;28;20469;-58
2022/04/23 04:49:09;;;;;;;47.47;17.60;;;9.20;43.40;;;;;;5004111;28;20499;-58
2022/04/23 04:51:37;;;;;;;49.90;18.47;;;9.20;42.70;;;;;;5007418;28;20483;-57
2022/04/23 04:54:05;;;;;;;47.40;17.17;;;9.20;42.70;;;;;;5005269;28;20483;-58
2022/04/23 04:56:32;;;;;;;47.73;17.33;;;9.20;42.40;;;;;;5007470;28;20841;-58
2022/04/23 04:58:59;;;;;;;50.40;20.40;;;9.20;42.20;;;;;;5005034;28;20484;-58
2022/04/23 05:01:26;;;;;;;47.30;16.20;;;9.20;42.20;;;;;;5003560;28;20483;-57
2022/04/23 05:03:53;;;;;;;47.60;16.77;;;9.20;42.10;;;;;;5004694;28;20472;-57
2022/04/23 05:06:22;;;;;;;46.70;17.10;;;9.30;42.00;;;;;;5012566;28;20495;-58
2022/04/23 05:08:48;;;;;;;46.57;16.70;;;9.30;42.00;;;;;;5010603;28;21014;-58
2022/04/23 05:11:15;;;;;;;46.30;16.90;;;9.30;42.00;;;;;;5011950;28;20467;-59
2022/04/23 05:13:42;;;;;;;48.73;17.47;;;9.30;41.90;;;;;;5005892;28;20500;-59
2022/04/23 05:16:09;;;;;;;46.10;17.73;;;9.30;41.80;;;;;;5003293;28;20986;-58
2022/04/23 05:18:36;;;;;;;44.40;15.13;;;9.30;41.60;;;;;;5009730;28;20491;-58
2022/04/23 05:21:04;;;;;;;45.73;16.47;;;9.30;41.70;;;;;;5003594;28;20490;-58
2022/04/23 05:23:32;;;;;;;45.07;15.70;;;9.30;41.80;;;;;;5003140;28;20448;-58
2022/04/23 05:25:59;;;;;;;46.90;18.10;;;9.30;41.60;;;;;;5004063;28;20475;-58
2022/04/23 05:28:26;;;;;;;46.10;16.70;;;9.40;41.40;;;;;;5007547;28;20483;-57
2022/04/23 05:30:52;;;;;;;46.30;16.67;;;9.40;41.40;;;;;;5013851;28;20841;-58
2022/04/23 05:33:19;;;;;;;45.20;16.27;;;9.40;41.00;;;;;;5006883;28;21209;-58
2022/04/23 05:35:46;;;;;;;45.60;17.20;;;9.40;41.00;;;;;;5005937;28;20475;-57
2022/04/23 05:38:13;;;;;;;44.73;16.13;;;9.40;41.00;;;;;;5004776;28;20483;-58
2022/04/23 05:40:41;;;;;;;46.83;16.20;;;9.40;41.20;;;;;;5011486;28;20481;-58
2022/04/23 05:43:08;;;;;;;46.13;16.03;;;9.40;41.00;;;;;;5001084;28;20511;-58
2022/04/23 05:45:35;;;;;;;45.00;15.90;;;9.30;40.60;;;;;;5015833;28;20843;-57
2022/04/23 05:48:02;;;;;;;46.57;16.13;;;9.30;40.80;;;;;;5006288;28;20487;-58
2022/04/23 05:50:29;;;;;;;45.47;15.70;;;9.30;41.00;;;;;;5011222;28;20467;-58
2022/04/23 05:52:56;;;;;;;48.93;16.80;;;9.30;41.20;;;;;;5005197;28;20467;-58
2022/04/23 05:55:23;;;;;;;45.93;16.13;;;9.30;41.00;;;;;;5014131;28;20547;-57
2022/04/23 05:57:51;;;;;;;46.40;15.90;;;9.30;40.90;;;;;;5009995;28;20506;-57
2022/04/23 06:00:19;;;;;;;47.23;16.20;;;9.30;41.10;;;;;;5001978;28;20921;-58
2022/04/23 06:02:46;;;;;;;45.00;15.30;;;9.40;40.90;;;;;;5007312;28;20463;-58
2022/04/23 06:05:13;;;;;;;45.13;14.30;;;9.30;41.60;;;;;;5007783;28;20924;-57
2022/04/23 06:07:40;;;;;;;45.13;15.77;;;9.40;40.80;;;;;;5008106;28;20713;-58
2022/04/23 06:10:08;;;;;;;46.50;16.67;;;9.40;40.60;;;;;;5007695;28;20464;-59
2022/04/23 06:12:35;;;;;;;44.40;14.93;;;9.40;40.70;;;;;;5007938;28;20472;-57
2022/04/23 06:15:04;;;;;;;46.00;16.20;;;9.30;40.90;;;;;;5006563;28;20463;-58
2022/04/23 06:17:31;;;;;;;46.80;15.60;;;9.30;41.30;;;;;;5003524;28;21225;-58
2022/04/23 06:19:57;;;;;;;46.77;16.43;;;9.30;41.20;;;;;;5006618;28;20483;-57
2022/04/23 06:22:24;;;;;;;47.13;15.63;;;9.30;41.20;;;;;;5008995;28;20464;-59
2022/04/23 06:24:51;;;;;;;45.70;15.90;;;9.30;41.30;;;;;;5005272;28;20463;-60
2022/04/23 06:27:18;;;;;;;47.93;16.07;;;9.30;41.10;;;;;;5012612;28;20486;-61
2022/04/23 06:29:45;;;;;;;44.27;15.33;;;9.30;41.10;;;;;;5010577;28;20466;-61
2022/04/23 06:32:13;;;;;;;45.03;15.97;;;9.40;41.00;;;;;;5004978;28;20484;-59
2022/04/23 06:34:40;;;;;;;47.00;17.77;;;9.40;41.00;;;;;;5006780;28;20826;-59
2022/04/23 06:37:07;;;;;;;45.50;16.70;;;9.40;40.90;;;;;;5005059;28;20464;-60
2022/04/23 06:39:34;;;;;;;44.57;15.60;;;9.40;40.70;;;;;;5006233;28;20471;-59
2022/04/23 06:42:01;;;;;;;45.30;15.57;;;9.50;40.70;;;;;;5004623;28;21025;-60
2022/04/23 06:44:28;;;;;;;45.60;14.50;;;9.60;40.50;;;;;;5008508;28;20467;-60
2022/04/23 06:46:54;;;;;;;44.13;14.40;;;9.60;40.10;;;;;;5005994;28;20870;-59
2022/04/23 06:49:24;;;;;;;45.27;14.63;;;9.70;40.00;;;;;;5008172;28;20471;-60
2022/04/23 06:51:51;;;;;;;43.17;13.60;;;9.70;39.90;;;;;;5006601;28;21409;-58
2022/04/23 06:54:17;;;;;;;45.77;14.40;;;9.80;39.70;;;;;;5009262;28;20470;-60
2022/04/23 06:56:44;;;;;;;47.57;15.63;;;9.90;39.50;;;;;;5012543;28;20849;-60
2022/04/23 06:59:11;;;;;;;47.00;14.30;;;10.00;39.20;;;;;;5009376;28;20479;-60
2022/04/23 07:01:40;;;;;;;42.97;13.60;;;10.00;38.90;;;;;;5003379;28;20481;-60
2022/04/23 07:04:07;;;;;;;43.80;13.70;;;10.00;38.60;;;;;;5016144;28;20470;-60
2022/04/23 07:06:35;;;;;;;43.17;13.60;;;10.00;38.30;;;;;;5014187;28;20463;-60
2022/04/23 07:09:02;;;;;;;44.90;14.90;;;10.10;38.50;;;;;;5006845;28;20483;-59
2022/04/23 07:11:29;;;;;;;44.50;14.47;;;10.10;38.50;;;;;;5005225;28;20467;-60
2022/04/23 07:13:56;;;;;;;45.17;12.37;;;10.10;38.40;;;;;;5016094;28;20546;-61
2022/04/23 07:16:23;;;;;;;43.80;14.80;;;10.10;38.20;;;;;;5014191;28;20471;-60
2022/04/23 07:18:52;;;;;;;46.57;15.63;;;10.10;38.20;;;;;;5012875;28;20482;-61
2022/04/23 07:21:19;;;;;;;44.40;14.93;;;10.20;38.10;;;;;;5012043;28;20487;-60
2022/04/23 07:24:08;;;;;;;45.10;14.70;;;10.20;38.10;;;;;;5017114;28;20466;-60
2022/04/23 07:26:36;;;;;;;44.30;13.60;;;10.30;37.90;;;;;;5006737;28;20460;-61
2022/04/23 07:29:05;;;;;;;44.87;13.57;;;10.30;37.50;;;;;;5009108;28;20494;-61
2022/04/23 07:31:32;;;;;;;43.57;14.30;;;10.30;37.30;;;;;;5012287;28;20515;-60
2022/04/23 07:39:29;;;;;;;44.17;13.73;;;10.30;37.40;;;;;;5006920;28;20456;-60
2022/04/23 07:41:55;;;;;;;44.60;14.97;;;10.30;37.60;;;;;;5005276;28;20546;-62
2022/04/23 07:44:23;;;;;;;45.83;14.40;;;10.20;37.60;;;;;;5003090;28;20967;-63
2022/04/23 07:46:50;;;;;;;44.73;14.03;;;10.20;37.80;;;;;;5007103;28;20490;-63
2022/04/23 07:49:17;;;;;;;43.50;14.80;;;10.10;37.80;;;;;;5005281;28;20875;-62
2022/04/23 07:51:46;;;;;;;42.20;12.73;;;10.20;37.80;;;;;;5007643;28;20464;-64
2022/04/23 07:54:14;;;;;;;44.57;15.73;;;10.20;37.80;;;;;;5003397;28;20464;-64
2022/04/23 07:56:43;;;;;;;42.77;13.30;;;10.10;37.90;;;;;;5006916;28;20475;-64
2022/04/23 07:59:11;;;;;;;46.33;16.63;;;10.10;37.90;;;;;;5010452;28;20494;-65
2022/04/23 08:01:38;;;;;;;42.47;13.80;;;10.10;37.90;;;;;;5003918;28;20545;-63
2022/04/23 08:04:06;;;;;;;44.47;15.13;;;10.20;37.50;;;;;;5005565;28;20529;-65
2022/04/23 08:06:35;;;;;;;46.90;15.93;;;10.30;37.40;;;;;;5003691;28;20464;-62
2022/04/23 08:09:03;;;;;;;43.37;14.13;;;10.30;37.40;;;;;;5010299;28;20500;-62
2022/04/23 08:11:29;;;;;;;42.97;14.20;;;10.30;37.50;;;;;;5007461;28;20452;-63
2022/04/23 08:13:58;;;;;;;42.83;14.60;;;10.30;37.50;;;;;;5005986;28;20459;-63
2022/04/23 08:16:27;;;;;;;45.00;16.17;;;10.30;37.50;;;;;;5001445;28;20904;-64
2022/04/23 08:18:54;;;;;;;48.47;20.47;;;10.30;37.60;;;;;;5001852;28;20492;-63
2022/04/23 08:21:22;;;;;;;48.10;17.53;;;10.30;37.20;;;;;;5001692;28;20519;-62
2022/04/23 08:23:48;;;;;;;44.33;14.80;;;10.30;37.60;;;;;;5008182;28;20561;-63
2022/04/23 08:26:15;;;;;;;47.37;17.00;;;10.40;37.30;;;;;;5000059;28;20460;-61
2022/04/23 08:31:27;;;;;;;45.20;15.47;;;10.50;36.80;;;;;;5002240;28;20633;-63
2022/04/23 08:34:00;;;;;;;43.40;14.20;;;10.60;36.80;;;;;;5002875;28;20464;-63
2022/04/23 08:36:30;;;;;;;42.93;15.80;;;10.70;36.70;;;;;;5003856;28;20463;-61
2022/04/23 08:38:57;;;;;;;45.53;15.50;;;10.80;36.00;;;;;;5007893;28;20550;-62
2022/04/23 08:41:28;;;;;;;44.33;14.50;;;10.90;35.80;;;;;;5002166;28;20583;-62
2022/04/23 08:43:56;;;;;;;44.73;15.33;;;11.00;35.00;;;;;;5004310;28;20464;-63
2022/04/23 08:46:24;;;;;;;43.33;15.67;;;11.00;35.10;;;;;;5001290;28;20495;-62
2022/04/23 08:49:00;;;;;;;45.20;15.93;;;11.10;35.20;;;;;;5004957;28;20484;-61
2022/04/23 08:51:33;;;;;;;44.47;14.80;;;11.10;34.80;;;;;;5003224;28;20475;-63
2022/04/23 08:54:04;;;;;;;44.30;15.23;;;11.20;34.60;;;;;;5004553;28;20468;-62
2022/04/23 08:56:31;;;;;;;44.90;15.80;;;11.20;34.70;;;;;;5005114;28;20478;-62
2022/04/23 08:58:57;;;;;;;43.60;14.87;;;11.30;34.90;;;;;;5001768;28;20491;-63
2022/04/23 09:01:24;;;;;;;42.67;15.57;;;11.30;34.50;;;;;;5003551;28;20472;-62
2022/04/23 09:03:53;;;;;;;46.40;16.30;;;11.40;34.20;;;;;;5002977;28;20460;-62
2022/04/23 09:06:20;;;;;;;44.73;17.23;;;11.50;34.00;;;;;;5007374;28;20972;-63
2022/04/23 09:09:13;;;;;;;46.10;16.07;;;11.50;33.70;;;;;;5006421;28;20487;-63
2022/04/23 09:11:41;;;;;;;45.23;16.67;;;11.50;34.00;;;;;;5004691;28;20588;-63
2022/04/23 09:14:09;;;;;;;46.30;16.10;;;11.50;34.50;;;;;;5002278;28;20475;-63
2022/04/23 09:25:08;;;;;;;46.33;16.70;;;11.30;34.50;;;;;;4999771;28;21002;-63
2022/04/23 09:27:35;;;;;;;46.37;16.90;;;11.30;34.40;;;;;;5003606;28;21013;-63
2022/04/23 09:30:04;;;;;;;49.03;17.67;;;11.20;34.70;;;;;;5003052;28;20456;-61
2022/04/23 09:32:31;;;;;;;46.70;17.57;;;11.10;35.20;;;;;;5006701;28;20531;-62
2022/04/23 09:35:10;;;;;;;47.97;18.53;;;11.10;35.10;;;;;;5003493;28;20467;-62
2022/04/23 09:40:24;;;;;;;45.80;16.90;;;11.10;35.10;;;;;;5000614;28;20480;-63
2022/04/23 09:42:59;;;;;;;45.93;16.00;;;11.10;35.60;;;;;;5004976;28;21197;-63
2022/04/23 09:45:28;;;;;;;48.53;17.23;;;11.10;35.50;;;;;;5004282;28;20467;-62
2022/04/23 09:47:56;;;;;;;44.33;16.30;;;11.10;35.90;;;;;;5008119;28;21024;-61
2022/04/23 09:50:24;;;;;;;47.30;18.23;;;11.20;35.80;;;;;;5002101;28;20464;-62
2022/04/23 09:52:51;;;;;;;45.20;14.23;;;11.20;35.50;;;;;;4998779;28;20471;-63
2022/04/23 09:55:20;;;;;;;45.93;16.90;;;11.30;35.20;;;;;;4999355;28;20478;-63
2022/04/23 09:57:48;;;;;;;45.30;15.47;;;11.30;35.10;;;;;;5000327;28;21083;-63
2022/04/23 10:00:16;;;;;;;46.40;16.70;;;11.40;35.10;;;;;;5003097;28;20625;-63
2022/04/23 10:02:45;;;;;;;44.73;16.80;;;11.50;34.70;;;;;;4998229;28;20483;-62
2022/04/23 10:05:16;;;;;;;44.27;15.77;;;11.50;34.90;;;;;;5005061;28;20464;-63
2022/04/23 10:07:48;;;;;;;46.13;15.83;;;11.60;34.60;;;;;;5000658;28;20989;-62
2022/04/23 10:10:17;;;;;;;46.60;16.47;;;11.60;34.30;;;;;;5002879;28;20464;-62
2022/04/23 10:12:45;;;;;;;50.40;17.13;;;11.60;34.20;;;;;;5008661;28;20456;-63
2022/04/23 10:15:14;;;;;;;47.33;18.03;;;11.60;34.20;;;;;;5003118;28;20487;-63
2022/04/23 10:17:43;;;;;;;45.33;16.53;;;11.60;34.40;;;;;;5004117;28;20479;-62
2022/04/23 10:20:13;;;;;;;47.80;18.97;;;11.60;34.40;;;;;;5003893;28;20467;-62
2022/04/23 10:22:54;;;;;;;44.63;16.60;;;11.60;34.20;;;;;;5003895;28;20487;-62
2022/04/23 10:25:31;;;;;;;46.43;17.53;;;11.60;34.10;;;;;;5002091;28;21858;-63
2022/04/23 10:27:59;;;;;;;46.93;16.93;;;11.70;34.40;;;;;;5003038;28;20892;-63
2022/04/23 10:30:31;;;;;;;45.10;16.33;;;11.60;34.30;;;;;;5000738;28;20977;-63
2022/04/23 10:32:59;;;;;;;45.37;17.40;;;11.70;34.30;;;;;;5002368;28;20977;-63
2022/04/23 10:35:33;;;;;;;45.07;17.27;;;11.60;34.50;;;;;;5001241;28;20463;-62
2022/04/23 10:38:23;;;;;;;43.37;16.80;;;11.70;34.70;;;;;;4996434;28;20510;-62
2022/04/23 10:40:53;;;;;;;46.50;17.50;;;11.70;34.60;;;;;;4997249;28;20579;-63
2022/04/23 10:43:19;;;;;;;45.70;17.80;;;11.60;34.50;;;;;;5004129;28;22372;-63
2022/04/23 10:45:48;;;;;;;45.37;16.23;;;11.60;34.80;;;;;;5007443;28;20459;-63
2022/04/23 10:48:32;;;;;;;45.93;16.17;;;11.60;35.00;;;;;;5001818;28;20484;-62
2022/04/23 10:51:06;;;;;;;45.80;17.33;;;11.80;34.80;;;;;;4999966;28;20497;-63
2022/04/23 10:53:56;;;;;;;45.27;16.87;;;11.90;34.30;;;;;;5004861;28;20459;-62
2022/04/23 10:56:26;;;;;;;45.40;16.90;;;12.00;34.00;;;;;;5002909;28;20478;-63
2022/04/23 10:58:53;;;;;;;44.50;16.43;;;12.20;33.90;;;;;;5008898;28;20638;-63
2022/04/23 11:01:25;;;;;;;45.90;17.47;;;12.20;33.20;;;;;;5000608;28;20479;-62
2022/04/23 11:04:09;;;;;;;45.77;16.53;;;12.30;32.90;;;;;;5002898;28;20555;-63
2022/04/23 11:12:32;;;;;;;44.33;17.17;;;13.00;31.10;;;;;;4970263;28;20464;-61
2022/04/23 11:15:00;;;;;;;43.13;16.27;;;13.10;30.70;;;;;;5007201;28;20507;-62
2022/04/23 11:17:55;;;;;;;44.17;15.70;;;13.10;30.50;;;;;;5008097;28;20504;-62
2022/04/23 11:20:33;;;;;;;44.83;16.03;;;13.30;30.60;;;;;;5007065;28;20852;-63
2022/04/23 11:23:01;;;;;;;49.90;17.03;;;13.70;30.00;;;;;;5008195;28;21052;-62
2022/04/23 11:25:31;;;;;;;44.23;17.07;;;14.00;29.50;;;;;;5003934;28;20529;-63
2022/04/23 11:28:13;;;;;;;42.77;17.10;;;14.00;28.00;;;;;;5006487;28;21060;-62
2022/04/23 11:30:39;;;;;;;46.30;17.30;;;14.10;27.50;;;;;;5004586;28;20469;-61
2022/04/23 11:33:11;;;;;;;42.30;15.93;;;14.00;27.20;;;;;;5002385;28;20522;-62
2022/04/23 11:35:38;;;;;;;44.30;16.30;;;13.90;27.70;;;;;;5010405;28;20467;-62
2022/04/23 11:38:05;;;;;;;41.73;15.50;;;14.10;27.70;;;;;;5010231;28;20479;-63
2022/04/23 11:40:36;;;;;;;45.13;15.37;;;14.00;27.60;;;;;;5009061;28;20491;-64
2022/04/23 11:43:03;;;;;;;42.30;15.27;;;14.00;27.80;;;;;;5013750;28;20490;-63
2022/04/23 11:45:30;;;;;;;44.07;16.93;;;14.10;28.00;;;;;;5011312;28;21310;-64
2022/04/23 11:47:57;;;;;;;40.00;14.80;;;14.10;27.90;;;;;;5004172;28;20492;-60
2022/04/23 11:50:23;;;;;;;46.70;16.30;;;14.10;27.60;;;;;;5004448;28;20502;-62
2022/04/23 11:53:01;;;;;;;42.17;16.50;;;14.20;27.10;;;;;;5004783;28;20467;-62
2022/04/23 11:55:30;;;;;;;42.47;15.70;;;14.30;26.90;;;;;;5004725;28;20459;-62
2022/04/23 11:58:00;;;;;;;42.47;16.10;;;14.50;27.10;;;;;;5006710;28;20495;-61
2022/04/23 12:00:27;;;;;;;41.73;15.37;;;14.60;26.40;;;;;;5004251;28;20464;-63
2022/04/23 12:02:55;;;;;;;42.60;15.63;;;14.80;25.60;;;;;;5017701;28;21236;-62
2022/04/23 12:05:24;;;;;;;40.60;16.10;;;14.80;24.80;;;;;;5016475;28;20456;-62
2022/04/23 12:07:51;;;;;;;40.53;16.27;;;14.70;25.30;;;;;;5003878;28;20495;-60
2022/04/23 12:10:24;;;;;;;40.80;15.77;;;14.70;25.50;;;;;;5004950;28;20470;-61
2022/04/23 12:12:51;;;;;;;42.20;15.67;;;14.80;25.70;;;;;;5003063;28;20522;-61
2022/04/23 12:15:23;;;;;;;42.73;16.47;;;15.00;25.90;;;;;;5000985;28;20464;-58
2022/04/23 12:17:52;;;;;;;41.83;17.00;;;15.30;25.00;;;;;;5003427;28;20483;-63
2022/04/23 12:20:20;;;;;;;40.07;15.33;;;15.40;23.80;;;;;;5004693;28;20464;-58
2022/04/23 12:22:59;;;;;;;41.63;16.80;;;15.40;23.10;;;;;;5001548;28;20484;-60
2022/04/23 12:25:27;;;;;;;41.57;16.70;;;15.40;23.70;;;;;;5000576;28;20872;-61
2022/04/23 12:27:58;;;;;;;43.20;17.20;;;15.40;23.50;;;;;;5003479;28;20479;-61
2022/04/23 12:41:41;;;;;;;42.57;16.83;;;16.10;21.70;;;;;;5003087;28;21022;-60
2022/04/23 12:44:21;;;;;;;46.53;16.37;;;15.90;21.80;;;;;;5006312;28;20571;-60
2022/04/23 12:46:59;;;;;;;40.40;15.73;;;15.80;21.60;;;;;;4998272;28;20480;-60
2022/04/23 12:49:45;;;;;;;44.77;16.20;;;15.70;22.10;;;;;;5000025;28;20871;-60
2022/04/23 12:52:15;;;;;;;39.70;15.27;;;15.80;22.80;;;;;;5003264;28;20815;-61
2022/04/23 12:54:42;;;;;;;41.90;16.73;;;15.90;22.40;;;;;;5001892;28;20467;-61
2022/04/23 12:57:15;;;;;;;40.53;16.10;;;15.90;21.90;;;;;;5004162;28;20494;-61
2022/04/23 12:59:42;;;;;;;40.40;16.40;;;15.90;21.60;;;;;;5004778;28;20464;-61
2022/04/23 13:02:10;;;;;;;42.33;15.53;;;15.90;21.60;;;;;;5002550;28;20479;-61
2022/04/23 13:04:37;;;;;;;41.30;16.60;;;16.00;21.50;;;;;;5001981;28;22003;-61
2022/04/23 13:09:48;;;;;;;40.80;15.53;;;16.20;21.20;;;;;;5010341;28;20494;-60
2022/04/23 13:12:15;;;;;;;42.60;15.33;;;16.20;20.80;;;;;;4999359;28;20958;-59
2022/04/23 13:14:43;;;;;;;40.20;15.60;;;16.20;21.20;;;;;;5003852;28;22828;-61